Tucumcari, NM (88401)

10:00 PM MST on January 31, 2015 (GMT -0700)
Tucumcari Municipal | Change Station
CLOSE
Current Station
Airport
Location: Tucumcari,
Elevation: 4065 ft
Nearby Weather Stations

Elev 4065 ft 35.18 °N, 103.60 °W | Updated 7 minutes ago

Clear
Clear
36 °F
Feels Like 31 °F
N
6
Wind Variable Wind from North

Today
High -- | Low -- °F
--% Chance of Precip.
Yesterday
High -- | Low -- °F
Precip. -- in
6:54 AM 5:22 PM
Waxing Gibbous, 93% visible
Pressure 29.81 in
Visibility 10.0 miles
Clouds Clear
Windchill 31 °F
Dew Point 34 °F
Humidity 93%
Rainfall 0.00 in
Snow Depth Not available.
UV 0 out of 12
Pollen 1.70 out of 12
Air Quality Not available.
Flu Activity Not available.
METAR KTCC 010453Z AUTO 36005KT 10SM CLR 02/01 A2981 RMK AO2 SLP094 T00220011

More Conditions Fewer Conditions

Pressure 29.81 in
Visibility 10.0 miles
Clouds Clear
Windchill 31 °F
Dew Point 34 °F
Humidity 93%
Rainfall 0.00 in
Snow Depth Not available.
UV 0 out of 12
Pollen 1.70 out of 12
Air Quality Not available.
Flu Activity Not available.
METAR KTCC 010453Z AUTO 36005KT 10SM CLR 02/01 A2981 RMK AO2 SLP094 T00220011

More Conditions Fewer Conditions

Nowcast | as of 9:13 PM MST on January 31, 2015

A few bands of light rain and snow will continue across portions of northeastern New Mexico through approximately midnight. Precipitation will generally be focused north of a line from Wagon Mound to Nara Visa with rainfall amounts of a few hundredths of an inch or less and generally an inch or less additional snow accumulation in the higher elevations of northern Union County and far northeast Colfax County. However...areas of fog will continue even where precipitation has waned...resulting in visibilities below one mile in some locations.

×

10-Day Weather Forecast

Almanac

Astronomy

Jan. 31, 2015 Rise Set
Actual Time
Civil Twilight
Nautical Twilight
Astronomical Twilight
Moon
Length of Visible Light
Length of Day
Tomorrow will be .
, % of the Moon is Illuminated

Today's Extremes

State Highs State Lows

Community

WunderPhotos

Upload Photos

1,792,313 photos uploaded!

WunderBlogs® & News

Nearby

Air Quality

  Air Quality AQ Index Pollutant
Not available.

Snow Depth

Station Depth Elevation

Earthquake Activity

City Distance Mag. Time & Date
Minimum magnitude displayed is 2.5.

Coastal Water Temperatures

Place Temperature

Nearby Weather Stations